createdAt,value
2017-12-02T00:01:57.421Z,55.60
2017-12-02T00:04:25.441Z,55.60
2017-12-02T00:06:53.513Z,55.60
2017-12-02T00:09:21.584Z,55.60
2017-12-02T00:11:49.601Z,55.60
2017-12-02T00:14:17.637Z,55.50
2017-12-02T00:16:45.764Z,55.50
2017-12-02T00:19:14.740Z,55.60
2017-12-02T00:21:42.915Z,55.50
2017-12-02T00:24:10.970Z,55.60
2017-12-02T00:26:39.008Z,55.50
2017-12-02T00:29:07.125Z,55.50
2017-12-02T00:31:35.149Z,55.60
2017-12-02T00:34:03.302Z,55.60
2017-12-02T00:36:32.154Z,55.70
2017-12-02T00:39:00.535Z,55.80
2017-12-02T00:41:29.241Z,55.70
2017-12-02T00:43:57.489Z,55.80
2017-12-02T00:46:25.704Z,55.70
2017-12-02T00:48:54.639Z,55.70
2017-12-02T00:51:22.703Z,55.70
2017-12-02T00:53:50.970Z,55.70
2017-12-02T00:56:19.120Z,55.70
2017-12-02T00:58:48.250Z,55.70
2017-12-02T01:01:16.779Z,55.70
2017-12-02T01:03:45.050Z,55.80
2017-12-02T01:06:13.525Z,55.80
2017-12-02T01:08:41.877Z,55.80
2017-12-02T01:11:11.213Z,55.90
2017-12-02T01:13:39.459Z,55.90
2017-12-02T01:16:07.923Z,55.90
2017-12-02T01:18:36.248Z,56.00
2017-12-02T01:21:04.876Z,56.00
2017-12-02T01:23:33.343Z,56.00
2017-12-02T01:26:01.601Z,56.00
2017-12-02T01:28:30.765Z,56.00
2017-12-02T01:30:59.062Z,56.00
2017-12-02T01:33:27.344Z,56.00
2017-12-02T01:35:55.610Z,56.00
2017-12-02T01:38:24.003Z,56.00
2017-12-02T01:40:52.245Z,56.00
2017-12-02T01:43:20.443Z,56.00
2017-12-02T01:45:48.639Z,56.10
2017-12-02T01:48:17.685Z,56.10
2017-12-02T01:50:46.024Z,56.00
2017-12-02T01:53:15.069Z,56.10
2017-12-02T01:55:43.422Z,56.10
2017-12-02T01:58:11.894Z,56.10
2017-12-02T02:00:40.101Z,56.10
2017-12-02T02:03:08.446Z,56.00
2017-12-02T02:05:36.940Z,56.10
2017-12-02T02:08:05.292Z,56.20
2017-12-02T02:10:34.250Z,56.10
2017-12-02T02:13:02.656Z,56.20
2017-12-02T02:15:31.763Z,56.30
2017-12-02T02:18:00.937Z,56.30
2017-12-02T02:20:29.323Z,56.30
2017-12-02T02:22:57.819Z,56.40
2017-12-02T02:25:26.159Z,56.40
2017-12-02T02:27:54.581Z,56.40
2017-12-02T02:30:22.974Z,56.40
2017-12-02T02:32:51.367Z,56.40
2017-12-02T02:35:19.624Z,56.50
2017-12-02T02:37:47.857Z,56.40
2017-12-02T02:40:16.141Z,56.30
2017-12-02T02:42:44.215Z,56.30
2017-12-02T02:45:12.411Z,56.30
2017-12-02T02:47:41.305Z,56.40
2017-12-02T02:50:09.583Z,56.40
2017-12-02T02:52:37.735Z,56.50
2017-12-02T02:55:06.790Z,56.60
2017-12-02T02:57:35.268Z,56.60
2017-12-02T03:00:03.849Z,56.60
2017-12-02T03:02:32.351Z,56.50
2017-12-02T03:05:00.421Z,56.50
2017-12-02T03:07:28.425Z,56.50
2017-12-02T03:09:57.273Z,56.50
2017-12-02T03:12:25.724Z,56.50
2017-12-02T03:14:55.813Z,56.50
2017-12-02T03:17:24.860Z,56.50
2017-12-02T03:19:54.569Z,56.40
2017-12-02T03:22:23.599Z,56.40
2017-12-02T03:24:51.813Z,56.60
2017-12-02T03:27:19.978Z,56.60
2017-12-02T03:29:48.177Z,56.70
2017-12-02T03:32:16.238Z,56.80
2017-12-02T03:34:44.294Z,56.80
2017-12-02T03:37:12.396Z,56.70
2017-12-02T03:39:40.461Z,56.70
2017-12-02T03:42:08.845Z,56.70
2017-12-02T03:44:37.263Z,56.70
2017-12-02T03:47:05.767Z,56.80
2017-12-02T03:49:35.062Z,57.30
2017-12-02T03:52:04.217Z,56.80
2017-12-02T03:54:32.809Z,56.90
2017-12-02T03:57:01.260Z,56.80
2017-12-02T03:59:29.791Z,56.90
2017-12-02T04:01:58.099Z,56.90
2017-12-02T04:04:26.581Z,56.90
2017-12-02T04:06:55.098Z,56.90
2017-12-02T04:09:23.411Z,56.90
2017-12-02T04:11:51.813Z,56.90
2017-12-02T04:14:21.175Z,56.80
2017-12-02T04:16:49.663Z,56.80
2017-12-02T04:19:18.262Z,56.80
2017-12-02T04:21:46.779Z,56.80
2017-12-02T04:24:15.356Z,56.80
2017-12-02T04:26:43.758Z,56.90
2017-12-02T04:29:12.118Z,57.00
2017-12-02T04:31:40.605Z,57.00
2017-12-02T04:34:08.974Z,57.00
2017-12-02T04:36:37.398Z,57.00
2017-12-02T04:39:05.846Z,57.00
2017-12-02T04:41:34.316Z,57.00
2017-12-02T04:44:02.801Z,57.00
2017-12-02T04:46:31.059Z,57.00
2017-12-02T04:49:00.407Z,57.10
2017-12-02T04:51:28.887Z,57.10
2017-12-02T04:53:57.342Z,57.00
2017-12-02T04:56:25.853Z,57.00
2017-12-02T04:58:54.307Z,57.00
2017-12-02T05:01:22.836Z,57.00
2017-12-02T05:03:51.475Z,57.10
2017-12-02T05:06:19.834Z,57.20
2017-12-02T05:08:49.135Z,57.20
2017-12-02T05:11:18.325Z,57.20
2017-12-02T05:13:47.450Z,57.30
2017-12-02T05:16:15.781Z,57.30
2017-12-02T05:18:44.500Z,57.30
2017-12-02T05:21:12.906Z,57.20
2017-12-02T05:23:41.485Z,57.30
2017-12-02T05:26:09.874Z,57.40
2017-12-02T05:28:38.370Z,57.30
2017-12-02T05:31:06.993Z,57.30
2017-12-02T05:33:36.162Z,57.30
2017-12-02T05:36:04.554Z,57.30
2017-12-02T05:38:32.648Z,57.20
2017-12-02T05:41:01.503Z,57.20
2017-12-02T05:43:29.559Z,57.40
2017-12-02T05:45:57.648Z,57.30
2017-12-02T05:48:25.801Z,57.30
2017-12-02T05:50:53.873Z,57.20
2017-12-02T05:53:21.983Z,57.20
2017-12-02T05:55:50.084Z,57.30
2017-12-02T05:58:18.156Z,57.30
2017-12-02T06:00:46.262Z,57.20
2017-12-02T06:03:14.357Z,57.20
2017-12-02T06:05:42.637Z,57.20
2017-12-02T06:08:10.780Z,57.20
2017-12-02T06:10:38.896Z,57.20
2017-12-02T06:13:06.984Z,57.20
2017-12-02T06:15:35.943Z,57.10
2017-12-02T06:18:04.104Z,57.20
2017-12-02T06:20:32.217Z,57.10
2017-12-02T06:23:01.073Z,57.10
2017-12-02T06:25:29.201Z,57.10
2017-12-02T06:27:57.320Z,57.10
2017-12-02T06:30:25.404Z,57.10
2017-12-02T06:32:53.494Z,57.10
2017-12-02T06:35:22.669Z,57.20
2017-12-02T06:37:51.060Z,57.20
2017-12-02T06:40:19.490Z,57.10
2017-12-02T06:42:47.900Z,57.10
2017-12-02T06:45:16.308Z,57.10
2017-12-02T06:47:45.480Z,57.00
2017-12-02T06:50:14.208Z,57.10
2017-12-02T06:52:43.446Z,56.90
2017-12-02T06:55:11.863Z,57.00
2017-12-02T06:57:40.563Z,56.90
2017-12-02T07:00:09.746Z,56.90
2017-12-02T07:02:38.053Z,56.90
2017-12-02T07:05:06.642Z,56.90
2017-12-02T07:07:35.110Z,56.90
2017-12-02T07:10:04.357Z,56.90
2017-12-02T07:12:32.953Z,57.00
2017-12-02T07:15:01.551Z,56.90
2017-12-02T07:17:30.028Z,56.80
2017-12-02T07:19:58.936Z,56.70
2017-12-02T07:22:28.163Z,56.70
2017-12-02T07:24:56.682Z,56.60
2017-12-02T07:27:25.231Z,56.50
2017-12-02T07:29:53.680Z,56.40
2017-12-02T07:32:22.893Z,56.30
2017-12-02T07:34:52.099Z,56.30
2017-12-02T07:37:20.757Z,56.30
2017-12-02T07:39:49.532Z,56.20
2017-12-02T07:42:18.089Z,56.20
2017-12-02T07:44:46.751Z,56.00
2017-12-02T07:47:15.371Z,56.00
2017-12-02T07:49:43.761Z,56.00
2017-12-02T07:52:12.247Z,55.90
2017-12-02T07:54:40.620Z,55.80
2017-12-02T07:57:09.151Z,55.80
2017-12-02T07:59:37.680Z,55.80
2017-12-02T08:02:06.289Z,55.70
2017-12-02T08:04:34.788Z,56.20
2017-12-02T08:07:04.019Z,55.80
2017-12-02T08:09:32.396Z,55.80
2017-12-02T08:12:00.721Z,55.40
2017-12-02T08:14:29.093Z,55.20
2017-12-02T08:16:57.611Z,55.10
2017-12-02T08:19:26.034Z,55.10
2017-12-02T08:21:54.824Z,55.10
2017-12-02T08:24:23.587Z,55.00
2017-12-02T08:26:52.244Z,54.90
2017-12-02T08:29:21.453Z,54.90
2017-12-02T08:31:50.422Z,54.90
2017-12-02T08:34:18.853Z,54.80
2017-12-02T08:36:47.229Z,54.80
2017-12-02T08:39:15.910Z,54.80
2017-12-02T08:41:44.317Z,54.70
2017-12-02T08:44:12.611Z,54.70
2017-12-02T08:46:41.288Z,54.70
2017-12-02T08:49:09.830Z,54.70
2017-12-02T08:51:38.452Z,54.60
2017-12-02T08:54:07.324Z,54.70
2017-12-02T08:56:36.735Z,54.70
2017-12-02T08:59:05.356Z,54.70
2017-12-02T09:01:33.871Z,54.70
2017-12-02T09:04:02.449Z,54.60
2017-12-02T09:06:30.994Z,54.60
2017-12-02T09:09:00.653Z,54.60
2017-12-02T09:11:31.747Z,54.60
2017-12-02T09:14:01.884Z,54.40
2017-12-02T09:16:31.038Z,54.40
2017-12-02T09:18:59.728Z,54.40
2017-12-02T09:21:28.315Z,54.40
2017-12-02T09:23:57.677Z,54.50
2017-12-02T09:26:26.774Z,54.50
2017-12-02T09:28:55.420Z,54.60
2017-12-02T09:31:25.128Z,54.60
2017-12-02T09:33:53.853Z,54.60
2017-12-02T09:36:22.717Z,54.60
2017-12-02T09:38:52.366Z,54.40
2017-12-02T09:41:21.882Z,54.40
2017-12-02T09:43:53.171Z,54.30
2017-12-02T09:46:21.883Z,54.40
2017-12-02T09:48:50.834Z,54.50
2017-12-02T09:51:19.188Z,54.40
2017-12-02T09:53:47.901Z,54.40
2017-12-02T09:56:16.317Z,54.40
2017-12-02T09:58:44.719Z,54.40
2017-12-02T10:01:13.468Z,54.30
2017-12-02T10:03:42.683Z,54.30
2017-12-02T10:06:11.261Z,54.30
2017-12-02T10:08:40.442Z,54.20
2017-12-02T10:11:09.748Z,54.20
2017-12-02T10:13:39.099Z,54.30
2017-12-02T10:16:07.787Z,54.30
2017-12-02T10:18:36.398Z,54.40
2017-12-02T10:21:05.192Z,54.30
2017-12-02T10:23:33.788Z,54.30
2017-12-02T10:26:02.377Z,54.20
2017-12-02T10:28:31.960Z,54.20
2017-12-02T10:31:00.936Z,54.20
2017-12-02T10:33:29.530Z,54.00
2017-12-02T10:35:58.061Z,54.00
2017-12-02T10:38:27.327Z,53.70
2017-12-02T10:40:56.067Z,53.70
2017-12-02T10:43:24.344Z,53.70
2017-12-02T10:45:52.669Z,53.70
2017-12-02T10:48:21.625Z,53.70
2017-12-02T10:50:50.319Z,53.80
2017-12-02T10:53:18.827Z,53.70
2017-12-02T10:55:47.413Z,53.70
2017-12-02T10:58:15.910Z,53.70
2017-12-02T11:00:45.064Z,53.60
2017-12-02T11:03:13.346Z,53.60
2017-12-02T11:05:42.162Z,53.60
2017-12-02T11:08:10.639Z,53.60
2017-12-02T11:10:39.017Z,53.60
2017-12-02T11:13:07.636Z,52.70
2017-12-02T11:15:36.557Z,52.70
2017-12-02T11:18:04.840Z,52.70
2017-12-02T11:20:32.842Z,52.70
2017-12-02T11:23:00.878Z,52.60
2017-12-02T11:25:28.949Z,52.60
2017-12-02T11:27:57.020Z,52.50
2017-12-02T11:30:25.059Z,52.40
2017-12-02T11:32:53.124Z,52.50
2017-12-02T11:35:21.973Z,52.60
2017-12-02T11:37:50.057Z,52.60
2017-12-02T11:40:18.161Z,52.60
2017-12-02T11:42:46.951Z,52.50
2017-12-02T11:45:15.770Z,52.50
2017-12-02T11:47:43.826Z,52.50
2017-12-02T11:50:11.849Z,52.40
2017-12-02T11:52:39.931Z,52.30
2017-12-02T11:55:07.990Z,52.20
2017-12-02T11:57:36.004Z,52.20
2017-12-02T12:00:04.872Z,52.30
2017-12-02T12:02:33.645Z,52.30
2017-12-02T12:05:01.657Z,52.30
2017-12-02T12:07:29.694Z,52.30
2017-12-02T12:09:57.705Z,52.20
2017-12-02T12:12:25.748Z,52.10
2017-12-02T12:14:53.759Z,52.10
2017-12-02T12:17:21.768Z,52.10
2017-12-02T12:19:49.746Z,51.90
2017-12-02T12:22:17.748Z,51.70
2017-12-02T12:24:46.582Z,51.30
2017-12-02T12:27:14.637Z,51.30
2017-12-02T12:29:42.715Z,51.00
2017-12-02T12:32:10.804Z,50.80
2017-12-02T12:34:38.964Z,50.80
2017-12-02T12:37:07.126Z,50.80
2017-12-02T12:39:35.166Z,50.80
2017-12-02T12:42:03.234Z,50.60
2017-12-02T12:44:31.476Z,50.60
2017-12-02T12:47:00.505Z,50.40
2017-12-02T12:49:28.827Z,50.40
2017-12-02T12:51:57.161Z,50.30
2017-12-02T12:54:25.467Z,50.20
2017-12-02T12:56:53.670Z,50.10
2017-12-02T12:59:21.787Z,50.10
2017-12-02T13:01:50.667Z,50.00
2017-12-02T13:04:19.547Z,49.90
2017-12-02T13:06:47.622Z,49.90
2017-12-02T13:09:16.371Z,49.80
2017-12-02T13:11:44.403Z,49.80
2017-12-02T13:14:13.253Z,49.80
2017-12-02T13:16:41.305Z,49.80
2017-12-02T13:19:09.320Z,49.80
2017-12-02T13:21:38.120Z,49.80
2017-12-02T13:24:06.893Z,49.70
2017-12-02T13:26:35.696Z,49.80
2017-12-02T13:29:04.564Z,49.80
2017-12-02T13:31:32.573Z,49.90
2017-12-02T13:34:00.598Z,49.80
2017-12-02T13:36:28.621Z,49.80
2017-12-02T13:38:56.727Z,49.70
2017-12-02T13:41:25.045Z,49.70
2017-12-02T13:43:53.936Z,49.60
2017-12-02T13:46:21.968Z,49.60
2017-12-02T13:48:50.010Z,49.60
2017-12-02T13:51:18.008Z,49.50
2017-12-02T13:53:46.126Z,49.50
2017-12-02T13:56:14.177Z,49.40
2017-12-02T13:58:42.255Z,49.60
2017-12-02T14:01:11.157Z,49.60
2017-12-02T14:03:39.225Z,49.60
2017-12-02T14:06:08.037Z,49.60
2017-12-02T14:08:36.059Z,49.60
2017-12-02T14:11:04.127Z,49.60
2017-12-02T14:13:32.144Z,49.70
2017-12-02T14:16:00.170Z,49.80
2017-12-02T14:18:28.198Z,49.70
2017-12-02T14:20:56.226Z,49.70
2017-12-02T14:23:25.004Z,49.70
2017-12-02T14:25:53.056Z,49.60
2017-12-02T14:28:21.089Z,49.60
2017-12-02T14:30:49.110Z,49.60
2017-12-02T14:33:17.229Z,49.60
2017-12-02T14:35:45.266Z,49.50
2017-12-02T14:38:13.318Z,49.50
2017-12-02T14:40:41.369Z,49.50
2017-12-02T14:43:09.413Z,49.40
2017-12-02T14:45:37.453Z,49.40
2017-12-02T14:48:06.355Z,49.40
2017-12-02T14:50:34.766Z,49.40
2017-12-02T14:53:04.144Z,49.40
2017-12-02T14:55:33.221Z,49.30
2017-12-02T14:58:01.210Z,49.30
2017-12-02T15:00:29.984Z,49.20
2017-12-02T15:02:58.084Z,49.20
2017-12-02T15:05:26.115Z,49.30
2017-12-02T15:07:54.113Z,49.20
2017-12-02T15:10:22.919Z,49.30
2017-12-02T15:12:50.969Z,49.30
2017-12-02T15:15:19.813Z,49.30
2017-12-02T15:17:47.865Z,49.30
2017-12-02T15:20:15.994Z,49.30
2017-12-02T15:22:44.779Z,49.30
2017-12-02T15:25:12.797Z,49.30
2017-12-02T15:27:40.880Z,49.40
2017-12-02T15:30:08.914Z,49.40
2017-12-02T15:32:36.993Z,49.40
2017-12-02T15:35:05.036Z,49.50
2017-12-02T15:37:33.845Z,49.40
2017-12-02T15:40:01.960Z,49.50
2017-12-02T15:42:30.048Z,49.50
2017-12-02T15:44:58.082Z,49.50
2017-12-02T15:47:26.198Z,49.60
2017-12-02T15:49:54.272Z,49.60
2017-12-02T15:52:23.259Z,49.80
2017-12-02T15:54:52.169Z,49.70
2017-12-02T15:57:20.933Z,49.70
2017-12-02T15:59:49.003Z,49.70
2017-12-02T16:02:17.451Z,49.70
2017-12-02T16:04:45.480Z,49.70
2017-12-02T16:07:14.569Z,49.70
2017-12-02T16:09:42.605Z,49.80
2017-12-02T16:12:10.681Z,49.60
2017-12-02T16:14:38.710Z,49.70
2017-12-02T16:17:06.909Z,49.60
2017-12-02T16:19:34.932Z,49.60
2017-12-02T16:22:03.747Z,50.40
2017-12-02T16:24:31.770Z,50.40
2017-12-02T16:26:59.875Z,50.30
2017-12-02T16:29:28.733Z,50.30
2017-12-02T16:31:56.761Z,50.30
2017-12-02T16:34:24.833Z,50.20
2017-12-02T16:36:52.844Z,50.30
2017-12-02T16:39:20.882Z,50.30
2017-12-02T16:41:48.919Z,50.30
2017-12-02T16:44:17.748Z,50.30
2017-12-02T16:46:45.919Z,50.30
2017-12-02T16:49:14.004Z,50.30
2017-12-02T16:51:42.221Z,50.30
2017-12-02T16:54:11.055Z,50.10
2017-12-02T16:56:39.131Z,50.20
2017-12-02T16:59:07.314Z,50.20
2017-12-02T17:01:35.425Z,50.10
2017-12-02T17:04:04.487Z,50.00
2017-12-02T17:06:32.728Z,50.00
2017-12-02T17:09:00.964Z,49.90
2017-12-02T17:11:29.900Z,50.00
2017-12-02T17:13:58.208Z,49.90
2017-12-02T17:16:26.508Z,49.90
2017-12-02T17:18:55.593Z,50.00
2017-12-02T17:21:24.726Z,50.10
2017-12-02T17:23:53.009Z,50.10
2017-12-02T17:26:21.152Z,49.90
2017-12-02T17:28:50.014Z,49.90
2017-12-02T17:31:18.269Z,49.80
2017-12-02T17:33:46.593Z,49.80
2017-12-02T17:36:15.638Z,49.70
2017-12-02T17:38:43.753Z,49.70
2017-12-02T17:41:12.014Z,49.70
2017-12-02T17:43:40.349Z,49.80
2017-12-02T17:46:08.679Z,49.70
2017-12-02T17:48:36.959Z,49.60
2017-12-02T17:51:06.786Z,49.60
2017-12-02T17:53:35.079Z,49.60
2017-12-02T17:56:04.233Z,49.70
2017-12-02T17:58:32.320Z,49.60
2017-12-02T18:01:00.555Z,49.60
2017-12-02T18:03:28.807Z,49.70
2017-12-02T18:05:56.940Z,49.70
2017-12-02T18:08:25.212Z,49.70
2017-12-02T18:10:53.319Z,49.60
2017-12-02T18:13:21.575Z,49.70
2017-12-02T18:15:50.631Z,49.70
2017-12-02T18:18:18.992Z,49.80
2017-12-02T18:20:48.251Z,49.70
2017-12-02T18:23:17.546Z,49.70
2017-12-02T18:25:46.595Z,49.70
2017-12-02T18:28:15.325Z,49.70
2017-12-02T18:30:44.531Z,49.60
2017-12-02T18:33:14.401Z,49.60
2017-12-02T18:35:42.770Z,49.60
2017-12-02T18:38:10.831Z,49.50
2017-12-02T18:40:39.683Z,49.40
2017-12-02T18:43:07.855Z,49.40
2017-12-02T18:45:36.757Z,49.50
2017-12-02T18:48:05.811Z,49.50
2017-12-02T18:50:34.523Z,49.60
2017-12-02T18:53:02.898Z,49.60
2017-12-02T18:55:31.006Z,49.80
2017-12-02T18:57:59.848Z,49.80
2017-12-02T19:00:28.489Z,49.90
2017-12-02T19:02:56.821Z,49.90
2017-12-02T19:05:25.133Z,50.00
2017-12-02T19:07:53.684Z,50.10
2017-12-02T19:10:21.991Z,50.10
2017-12-02T19:12:50.185Z,50.10
2017-12-02T19:15:18.648Z,50.10
2017-12-02T19:17:48.082Z,50.20
2017-12-02T19:20:17.344Z,50.20
2017-12-02T19:22:45.842Z,50.20
2017-12-02T19:25:14.840Z,50.20
2017-12-02T19:27:43.114Z,50.30
2017-12-02T19:30:11.733Z,50.20
2017-12-02T19:32:39.977Z,50.30
2017-12-02T19:35:08.269Z,50.40
2017-12-02T19:37:36.738Z,50.40
2017-12-02T19:40:05.015Z,50.50
2017-12-02T19:42:34.504Z,50.40
2017-12-02T19:45:02.796Z,50.50
2017-12-02T19:47:31.099Z,50.40
2017-12-02T19:49:59.536Z,50.40
2017-12-02T19:52:27.885Z,50.50
2017-12-02T19:54:56.984Z,50.50
2017-12-02T19:57:38.369Z,50.40
2017-12-02T20:00:07.764Z,50.40
2017-12-02T20:02:36.859Z,50.40
2017-12-02T20:05:05.911Z,50.40
2017-12-02T20:07:35.724Z,50.40
2017-12-02T20:10:06.472Z,50.40
2017-12-02T20:12:36.676Z,50.50
2017-12-02T20:15:05.511Z,50.50
2017-12-02T20:17:34.594Z,50.50
2017-12-02T20:20:04.104Z,50.50
2017-12-02T20:22:32.595Z,50.60
2017-12-02T20:25:01.828Z,50.60
2017-12-02T20:27:30.008Z,50.60
2017-12-02T20:29:58.620Z,50.70
2017-12-02T20:32:26.809Z,50.70
2017-12-02T20:34:55.068Z,50.70
2017-12-02T20:37:23.466Z,50.60
2017-12-02T20:39:52.469Z,50.50
2017-12-02T20:42:21.124Z,50.50
2017-12-02T20:44:49.802Z,50.50
2017-12-02T20:47:17.993Z,50.40
2017-12-02T20:49:46.281Z,50.30
2017-12-02T20:52:14.470Z,50.30
2017-12-02T20:54:42.493Z,50.30
2017-12-02T20:57:11.277Z,50.30
2017-12-02T20:59:40.344Z,50.30
2017-12-02T21:02:08.611Z,50.20
2017-12-02T21:04:36.636Z,50.30
2017-12-02T21:07:04.733Z,50.20
2017-12-02T21:09:33.146Z,50.20
2017-12-02T21:12:01.153Z,50.20
2017-12-02T21:14:29.152Z,50.30
2017-12-02T21:16:57.229Z,50.30
2017-12-02T21:19:25.313Z,50.40
2017-12-02T21:21:53.361Z,50.40
2017-12-02T21:24:21.431Z,50.40
2017-12-02T21:26:49.458Z,50.30
2017-12-02T21:29:17.466Z,50.30
2017-12-02T21:31:45.484Z,51.00
2017-12-02T21:34:13.494Z,50.40
2017-12-02T21:36:41.813Z,50.50
2017-12-02T21:39:10.378Z,50.50
2017-12-02T21:41:39.467Z,50.40
2017-12-02T21:44:08.861Z,50.40
2017-12-02T21:46:38.059Z,50.40
2017-12-02T21:49:07.503Z,50.30
2017-12-02T21:51:35.869Z,50.30
2017-12-02T21:54:04.205Z,50.30
2017-12-02T21:56:33.308Z,50.20
2017-12-02T21:59:02.282Z,50.20
2017-12-02T22:01:31.958Z,50.00
2017-12-02T22:04:00.893Z,50.00
2017-12-02T22:06:30.489Z,50.20
2017-12-02T22:08:59.650Z,50.20
2017-12-02T22:11:28.466Z,50.10
2017-12-02T22:13:57.362Z,50.10
2017-12-02T22:16:26.217Z,50.00
2017-12-02T22:18:54.629Z,50.00
2017-12-02T22:21:22.846Z,50.10
2017-12-02T22:23:51.237Z,50.10
2017-12-02T22:26:19.997Z,50.10
2017-12-02T22:28:49.654Z,50.20
2017-12-02T22:31:18.449Z,50.20
2017-12-02T22:33:47.160Z,50.30
2017-12-02T22:36:15.735Z,50.30
2017-12-02T22:38:43.766Z,50.30
2017-12-02T22:41:11.809Z,50.30
2017-12-02T22:43:39.909Z,50.40
2017-12-02T22:46:07.914Z,50.40
2017-12-02T22:48:35.980Z,50.40
2017-12-02T22:51:04.028Z,50.40
2017-12-02T22:53:32.049Z,50.30
2017-12-02T22:56:00.836Z,50.40
2017-12-02T22:58:29.644Z,50.50
2017-12-02T23:00:57.666Z,50.50
2017-12-02T23:03:25.751Z,50.50
2017-12-02T23:05:53.778Z,50.40
2017-12-02T23:08:21.790Z,50.40
2017-12-02T23:10:49.872Z,50.40
2017-12-02T23:13:17.900Z,50.30
2017-12-02T23:15:45.933Z,50.40
2017-12-02T23:18:14.697Z,50.30
2017-12-02T23:20:42.775Z,50.30
2017-12-02T23:23:10.788Z,50.30
2017-12-02T23:25:39.109Z,50.40
2017-12-02T23:28:07.106Z,50.30
2017-12-02T23:30:35.886Z,50.30
2017-12-02T23:33:04.645Z,50.30
2017-12-02T23:35:32.644Z,50.40
2017-12-02T23:38:01.415Z,50.30
2017-12-02T23:40:29.448Z,50.30
2017-12-02T23:42:57.442Z,50.20
2017-12-02T23:45:25.421Z,50.30
2017-12-02T23:47:53.417Z,50.30
2017-12-02T23:50:22.161Z,50.30
2017-12-02T23:52:50.188Z,50.30
2017-12-02T23:55:18.962Z,50.30
2017-12-02T23:57:47.713Z,50.30
